Kristin D — C6XA6 — position and weather

sailwx.info

Track history (hours):
 
Tides and Currents Weather Stations Pressure Air Temp Water Temp Dewpoint Dewpoint Depression Visibility Wind Speed Wind Dir Waves Ship Positions

Kristin D

Last reported at 2016-Sep-29 23:33 UTC. Time now 2016-Sep-30 08:23 UTC.
Position N 56°16' E 011°03'.

Length 90 m; draft 4.4 m.

Type: Cargo ship. MMSI: 311003700.

Date/timePositionNaut miles runAvg speedWind from/ knotsBaromVisibWave heightAir tempDewpointWater temp
2016-Sep-29 23:33N 56°16' E 011°03'62 8.8
2016-Sep-29 16:33N 57°17' E 010°42'1010.0
2016-Sep-29 15:33N 57°27' E 010°43'9 9.3
2016-Sep-29 14:33N 57°36' E 010°44'9 9.3
2016-Sep-29 13:33N 57°45' E 010°45'15812.1
2016-Sep-29 00:33N 58°23' E 005°55'3110.2
2016-Sep-28 21:33N 58°48' E 005°23'2010.1
2016-Sep-28 19:34N 59°09' E 005°20'3110.3
2016-Sep-28 16:33N 59°40' E 005°21'7 7.1
2016-Sep-28 15:33N 59°45' E 005°29'0 0.0
2016-Sep-28 12:33N 59°45' E 005°29'0 0.0
2016-Sep-28 08:33N 59°45' E 005°29'0 0.0
2016-Sep-28 03:33N 59°45' E 005°29'0 0.0
2016-Sep-28 02:33N 59°45' E 005°29'0 0.0
2016-Sep-28 01:33N 59°45' E 005°29'0 0.0
2016-Sep-27 23:33N 59°45' E 005°29'202 7.4
2016-Sep-26 20:12N 63°03' E 006°52'811.2
2016-Sep-26 19:31N 63°08' E 007°06'  
2016-Sep-24 12:33N 63°06' E 007°41'13 6.4
2016-Sep-24 10:33N 63°10' E 007°15'25011.8
2016-Sep-23 13:21N 59°10' E 004°48'4311.5
2016-Sep-23 09:33N 58°34' E 005°34'3511.8
2016-Sep-23 06:34N 58°09' E 006°22'2311.4
2016-Sep-23 04:34N 57°58' E 006°59'4912.2
2016-Sep-23 00:33N 58°10' E 008°28'1212.3
2016-Sep-22 23:33N 58°19' E 008°45'16 1.5
2016-Sep-22 12:33N 58°06' E 008°27'48711.3
2016-Sep-20 17:33N 51°01' E 001°40'  
Track history (hours):
 
Tides and Currents Weather Stations Pressure Air Temp Water Temp Dewpoint Dewpoint Depression Visibility Wind Speed Wind Dir Waves Ship Positions

Kristin D

Last reported at 2016-Sep-29 23:33 UTC. Time now 2016-Sep-30 08:23 UTC.
Position N 56°16' E 011°03'.

Length 90 m; draft 4.4 m.

Type: Cargo ship. MMSI: 311003700.

Date/timePositionNaut miles runAvg speedWind from/ knotsBaromVisibWave heightAir tempDewpointWater temp
2016-Sep-29 23:33N 56°16' E 011°03'62 8.8
2016-Sep-29 16:33N 57°17' E 010°42'1010.0
2016-Sep-29 15:33N 57°27' E 010°43'9 9.3
2016-Sep-29 14:33N 57°36' E 010°44'9 9.3
2016-Sep-29 13:33N 57°45' E 010°45'15812.1
2016-Sep-29 00:33N 58°23' E 005°55'3110.2
2016-Sep-28 21:33N 58°48' E 005°23'2010.1
2016-Sep-28 19:34N 59°09' E 005°20'3110.3
2016-Sep-28 16:33N 59°40' E 005°21'7 7.1
2016-Sep-28 15:33N 59°45' E 005°29'0 0.0
2016-Sep-28 12:33N 59°45' E 005°29'0 0.0
2016-Sep-28 08:33N 59°45' E 005°29'0 0.0
2016-Sep-28 03:33N 59°45' E 005°29'0 0.0
2016-Sep-28 02:33N 59°45' E 005°29'0 0.0
2016-Sep-28 01:33N 59°45' E 005°29'0 0.0
2016-Sep-27 23:33N 59°45' E 005°29'202 7.4
2016-Sep-26 20:12N 63°03' E 006°52'811.2
2016-Sep-26 19:31N 63°08' E 007°06'  
2016-Sep-24 12:33N 63°06' E 007°41'13 6.4
2016-Sep-24 10:33N 63°10' E 007°15'25011.8
2016-Sep-23 13:21N 59°10' E 004°48'4311.5
2016-Sep-23 09:33N 58°34' E 005°34'3511.8
2016-Sep-23 06:34N 58°09' E 006°22'2311.4
2016-Sep-23 04:34N 57°58' E 006°59'4912.2
2016-Sep-23 00:33N 58°10' E 008°28'1212.3
2016-Sep-22 23:33N 58°19' E 008°45'16 1.5
2016-Sep-22 12:33N 58°06' E 008°27'48711.3
2016-Sep-20 17:33N 51°01' E 001°40'  

Dump ship's entire track history